sensor_id;sensor_type;location;lat;lon;timestamp;P1;durP1;ratioP1;P2;durP2;ratioP2
9140;SDS011;46330;50.822;7.126;2022-11-03T00:01:33;10.63;;;2.88;;
9140;SDS011;46330;50.822;7.126;2022-11-03T00:04:03;9.98;;;2.70;;
9140;SDS011;46330;50.822;7.126;2022-11-03T00:06:31;13.27;;;3.17;;
9140;SDS011;46330;50.822;7.126;2022-11-03T00:08:59;15.65;;;3.33;;
9140;SDS011;46330;50.822;7.126;2022-11-03T00:11:30;9.18;;;3.28;;
9140;SDS011;46330;50.822;7.126;2022-11-03T00:13:59;12.00;;;3.28;;
9140;SDS011;46330;50.822;7.126;2022-11-03T00:16:27;8.52;;;3.00;;
9140;SDS011;46330;50.822;7.126;2022-11-03T00:18:56;10.82;;;3.22;;
9140;SDS011;46330;50.822;7.126;2022-11-03T00:21:24;8.30;;;2.78;;
9140;SDS011;46330;50.822;7.126;2022-11-03T00:23:52;10.35;;;2.75;;
9140;SDS011;46330;50.822;7.126;2022-11-03T00:26:20;10.45;;;2.63;;
9140;SDS011;46330;50.822;7.126;2022-11-03T00:28:50;11.55;;;3.15;;
9140;SDS011;46330;50.822;7.126;2022-11-03T00:31:19;8.63;;;2.63;;
9140;SDS011;46330;50.822;7.126;2022-11-03T00:33:48;8.45;;;2.80;;
9140;SDS011;46330;50.822;7.126;2022-11-03T00:36:18;10.75;;;3.28;;
9140;SDS011;46330;50.822;7.126;2022-11-03T00:38:47;9.65;;;2.90;;
9140;SDS011;46330;50.822;7.126;2022-11-03T00:41:15;10.82;;;3.28;;
9140;SDS011;46330;50.822;7.126;2022-11-03T00:43:46;11.15;;;3.25;;
9140;SDS011;46330;50.822;7.126;2022-11-03T00:46:14;13.43;;;3.25;;
9140;SDS011;46330;50.822;7.126;2022-11-03T00:48:42;9.77;;;2.72;;
9140;SDS011;46330;50.822;7.126;2022-11-03T00:51:11;13.23;;;3.20;;
9140;SDS011;46330;50.822;7.126;2022-11-03T00:53:42;11.73;;;3.30;;
9140;SDS011;46330;50.822;7.126;2022-11-03T00:56:12;9.63;;;3.17;;
9140;SDS011;46330;50.822;7.126;2022-11-03T00:58:41;7.50;;;3.40;;
9140;SDS011;46330;50.822;7.126;2022-11-03T01:01:11;9.40;;;3.00;;
9140;SDS011;46330;50.822;7.126;2022-11-03T01:03:40;10.68;;;2.85;;
9140;SDS011;46330;50.822;7.126;2022-11-03T01:06:31;8.80;;;2.47;;
9140;SDS011;46330;50.822;7.126;2022-11-03T01:09:18;14.98;;;3.42;;
9140;SDS011;46330;50.822;7.126;2022-11-03T01:11:49;10.18;;;3.03;;
9140;SDS011;46330;50.822;7.126;2022-11-03T01:14:22;11.15;;;3.45;;
9140;SDS011;46330;50.822;7.126;2022-11-03T01:16:50;10.75;;;3.17;;
9140;SDS011;46330;50.822;7.126;2022-11-03T01:19:18;9.00;;;3.03;;
9140;SDS011;46330;50.822;7.126;2022-11-03T01:21:46;10.30;;;2.95;;
9140;SDS011;46330;50.822;7.126;2022-11-03T01:24:14;10.50;;;2.90;;
9140;SDS011;46330;50.822;7.126;2022-11-03T01:26:43;12.40;;;3.35;;
9140;SDS011;46330;50.822;7.126;2022-11-03T01:29:11;11.40;;;3.03;;
9140;SDS011;46330;50.822;7.126;2022-11-03T01:31:39;12.50;;;2.70;;
9140;SDS011;46330;50.822;7.126;2022-11-03T01:34:07;10.52;;;2.65;;
9140;SDS011;46330;50.822;7.126;2022-11-03T01:36:38;12.02;;;3.45;;
9140;SDS011;46330;50.822;7.126;2022-11-03T01:39:07;8.35;;;2.95;;
9140;SDS011;46330;50.822;7.126;2022-11-03T01:41:36;9.45;;;3.22;;
9140;SDS011;46330;50.822;7.126;2022-11-03T01:44:25;8.90;;;3.20;;
9140;SDS011;46330;50.822;7.126;2022-11-03T01:46:56;12.27;;;2.90;;
9140;SDS011;46330;50.822;7.126;2022-11-03T01:49:30;7.25;;;3.00;;
9140;SDS011;46330;50.822;7.126;2022-11-03T01:52:03;9.88;;;2.97;;
9140;SDS011;46330;50.822;7.126;2022-11-03T01:54:35;13.32;;;2.75;;
9140;SDS011;46330;50.822;7.126;2022-11-03T01:57:05;8.57;;;3.03;;
9140;SDS011;46330;50.822;7.126;2022-11-03T01:59:38;8.98;;;2.78;;
9140;SDS011;46330;50.822;7.126;2022-11-03T02:02:07;10.77;;;3.58;;
9140;SDS011;46330;50.822;7.126;2022-11-03T02:04:35;11.63;;;2.60;;
9140;SDS011;46330;50.822;7.126;2022-11-03T02:07:06;12.20;;;2.97;;
9140;SDS011;46330;50.822;7.126;2022-11-03T02:09:41;10.55;;;2.75;;
9140;SDS011;46330;50.822;7.126;2022-11-03T02:12:09;10.32;;;3.15;;
9140;SDS011;46330;50.822;7.126;2022-11-03T02:14:39;11.68;;;2.75;;
9140;SDS011;46330;50.822;7.126;2022-11-03T02:17:11;10.60;;;2.45;;
9140;SDS011;46330;50.822;7.126;2022-11-03T02:19:41;12.27;;;2.90;;
9140;SDS011;46330;50.822;7.126;2022-11-03T02:22:30;14.25;;;2.72;;
9140;SDS011;46330;50.822;7.126;2022-11-03T02:25:17;9.43;;;2.17;;
9140;SDS011;46330;50.822;7.126;2022-11-03T02:27:57;11.02;;;2.70;;
9140;SDS011;46330;50.822;7.126;2022-11-03T02:30:26;12.98;;;2.55;;
9140;SDS011;46330;50.822;7.126;2022-11-03T02:33:02;9.77;;;2.60;;
9140;SDS011;46330;50.822;7.126;2022-11-03T02:35:38;11.35;;;2.58;;
9140;SDS011;46330;50.822;7.126;2022-11-03T02:38:09;12.05;;;2.58;;
9140;SDS011;46330;50.822;7.126;2022-11-03T02:40:44;8.68;;;2.75;;
9140;SDS011;46330;50.822;7.126;2022-11-03T02:43:14;10.35;;;2.47;;
9140;SDS011;46330;50.822;7.126;2022-11-03T02:45:43;12.55;;;2.30;;
9140;SDS011;46330;50.822;7.126;2022-11-03T02:48:14;11.85;;;2.45;;
9140;SDS011;46330;50.822;7.126;2022-11-03T02:50:45;11.32;;;2.83;;
9140;SDS011;46330;50.822;7.126;2022-11-03T02:53:14;10.80;;;2.30;;
9140;SDS011;46330;50.822;7.126;2022-11-03T02:55:47;12.68;;;2.80;;
9140;SDS011;46330;50.822;7.126;2022-11-03T02:58:23;12.43;;;2.50;;
9140;SDS011;46330;50.822;7.126;2022-11-03T03:00:56;16.42;;;3.58;;
9140;SDS011;46330;50.822;7.126;2022-11-03T03:03:30;14.73;;;3.10;;
9140;SDS011;46330;50.822;7.126;2022-11-03T03:06:04;16.70;;;2.75;;
9140;SDS011;46330;50.822;7.126;2022-11-03T03:08:36;14.15;;;3.55;;
9140;SDS011;46330;50.822;7.126;2022-11-03T03:11:10;12.07;;;2.60;;
9140;SDS011;46330;50.822;7.126;2022-11-03T03:13:39;14.32;;;3.08;;
9140;SDS011;46330;50.822;7.126;2022-11-03T03:16:10;12.32;;;2.60;;
9140;SDS011;46330;50.822;7.126;2022-11-03T03:18:45;9.40;;;2.53;;
9140;SDS011;46330;50.822;7.126;2022-11-03T03:21:17;11.10;;;2.70;;
9140;SDS011;46330;50.822;7.126;2022-11-03T03:23:49;10.82;;;2.40;;
9140;SDS011;46330;50.822;7.126;2022-11-03T03:26:23;10.18;;;2.13;;
9140;SDS011;46330;50.822;7.126;2022-11-03T03:28:56;15.75;;;2.25;;
9140;SDS011;46330;50.822;7.126;2022-11-03T03:31:28;10.73;;;2.55;;
9140;SDS011;46330;50.822;7.126;2022-11-03T03:34:00;10.18;;;2.30;;
9140;SDS011;46330;50.822;7.126;2022-11-03T03:36:50;9.70;;;2.70;;
9140;SDS011;46330;50.822;7.126;2022-11-03T03:39:21;13.95;;;2.72;;
9140;SDS011;46330;50.822;7.126;2022-11-03T03:41:54;12.43;;;2.47;;
9140;SDS011;46330;50.822;7.126;2022-11-03T03:44:24;10.60;;;2.17;;
9140;SDS011;46330;50.822;7.126;2022-11-03T03:46:56;12.73;;;2.60;;
9140;SDS011;46330;50.822;7.126;2022-11-03T03:49:26;8.02;;;2.17;;
9140;SDS011;46330;50.822;7.126;2022-11-03T03:51:54;12.38;;;2.63;;
9140;SDS011;46330;50.822;7.126;2022-11-03T03:54:22;9.93;;;2.90;;
9140;SDS011;46330;50.822;7.126;2022-11-03T03:56:50;9.27;;;2.80;;
9140;SDS011;46330;50.822;7.126;2022-11-03T03:59:27;8.85;;;2.00;;
9140;SDS011;46330;50.822;7.126;2022-11-03T04:01:55;18.00;;;2.63;;
9140;SDS011;46330;50.822;7.126;2022-11-03T04:04:23;10.88;;;2.30;;
9140;SDS011;46330;50.822;7.126;2022-11-03T04:06:51;9.73;;;2.17;;
9140;SDS011;46330;50.822;7.126;2022-11-03T04:09:39;9.70;;;2.10;;
9140;SDS011;46330;50.822;7.126;2022-11-03T04:12:08;10.43;;;2.60;;
9140;SDS011;46330;50.822;7.126;2022-11-03T04:14:50;12.30;;;2.42;;
9140;SDS011;46330;50.822;7.126;2022-11-03T04:20:22;12.07;;;2.50;;
9140;SDS011;46330;50.822;7.126;2022-11-03T04:23:07;10.13;;;2.10;;
9140;SDS011;46330;50.822;7.126;2022-11-03T04:25:35;11.43;;;2.30;;
9140;SDS011;46330;50.822;7.126;2022-11-03T04:28:06;9.00;;;2.30;;
9140;SDS011;46330;50.822;7.126;2022-11-03T04:30:35;9.13;;;2.13;;
9140;SDS011;46330;50.822;7.126;2022-11-03T04:33:03;8.82;;;1.98;;
9140;SDS011;46330;50.822;7.126;2022-11-03T04:35:38;8.10;;;2.20;;
9140;SDS011;46330;50.822;7.126;2022-11-03T04:38:18;14.75;;;2.83;;
9140;SDS011;46330;50.822;7.126;2022-11-03T04:40:49;8.77;;;2.33;;
9140;SDS011;46330;50.822;7.126;2022-11-03T04:43:22;11.13;;;2.40;;
9140;SDS011;46330;50.822;7.126;2022-11-03T04:45:55;6.97;;;2.20;;
9140;SDS011;46330;50.822;7.126;2022-11-03T04:48:24;8.80;;;2.22;;
9140;SDS011;46330;50.822;7.126;2022-11-03T04:50:53;10.75;;;2.25;;
9140;SDS011;46330;50.822;7.126;2022-11-03T04:53:27;10.20;;;2.40;;
9140;SDS011;46330;50.822;7.126;2022-11-03T04:55:56;9.02;;;1.90;;
9140;SDS011;46330;50.822;7.126;2022-11-03T05:01:02;10.30;;;2.17;;
9140;SDS011;46330;50.822;7.126;2022-11-03T05:03:31;10.18;;;2.22;;
9140;SDS011;46330;50.822;7.126;2022-11-03T05:06:04;7.93;;;2.00;;
9140;SDS011;46330;50.822;7.126;2022-11-03T05:08:37;12.38;;;2.08;;
9140;SDS011;46330;50.822;7.126;2022-11-03T05:11:08;8.90;;;2.35;;
9140;SDS011;46330;50.822;7.126;2022-11-03T05:13:42;12.23;;;2.50;;
9140;SDS011;46330;50.822;7.126;2022-11-03T05:16:10;9.68;;;2.10;;
9140;SDS011;46330;50.822;7.126;2022-11-03T05:18:39;9.82;;;2.67;;
9140;SDS011;46330;50.822;7.126;2022-11-03T05:21:10;8.70;;;2.78;;
9140;SDS011;46330;50.822;7.126;2022-11-03T05:23:40;7.82;;;2.22;;
9140;SDS011;46330;50.822;7.126;2022-11-03T05:26:10;12.73;;;2.70;;
9140;SDS011;46330;50.822;7.126;2022-11-03T05:28:45;10.20;;;2.53;;
9140;SDS011;46330;50.822;7.126;2022-11-03T05:31:21;9.35;;;2.38;;
9140;SDS011;46330;50.822;7.126;2022-11-03T05:33:50;9.48;;;2.28;;
9140;SDS011;46330;50.822;7.126;2022-11-03T05:36:20;9.05;;;2.35;;
9140;SDS011;46330;50.822;7.126;2022-11-03T05:38:50;9.43;;;2.38;;
9140;SDS011;46330;50.822;7.126;2022-11-03T05:41:20;7.65;;;2.17;;
9140;SDS011;46330;50.822;7.126;2022-11-03T05:43:54;12.95;;;2.60;;
9140;SDS011;46330;50.822;7.126;2022-11-03T05:46:25;12.05;;;2.75;;
9140;SDS011;46330;50.822;7.126;2022-11-03T05:48:55;7.65;;;2.30;;
9140;SDS011;46330;50.822;7.126;2022-11-03T05:51:27;8.43;;;2.80;;
9140;SDS011;46330;50.822;7.126;2022-11-03T05:53:59;5.80;;;2.30;;
9140;SDS011;46330;50.822;7.126;2022-11-03T05:56:30;12.98;;;2.30;;
9140;SDS011;46330;50.822;7.126;2022-11-03T05:59:00;8.55;;;2.47;;
9140;SDS011;46330;50.822;7.126;2022-11-03T06:01:31;13.40;;;2.42;;
9140;SDS011;46330;50.822;7.126;2022-11-03T06:04:09;10.05;;;2.70;;
9140;SDS011;46330;50.822;7.126;2022-11-03T06:06:45;9.23;;;2.40;;
9140;SDS011;46330;50.822;7.126;2022-11-03T06:09:19;9.60;;;2.05;;
9140;SDS011;46330;50.822;7.126;2022-11-03T06:11:49;7.13;;;2.40;;
9140;SDS011;46330;50.822;7.126;2022-11-03T06:14:21;12.07;;;2.50;;
9140;SDS011;46330;50.822;7.126;2022-11-03T06:16:50;10.20;;;2.60;;
9140;SDS011;46330;50.822;7.126;2022-11-03T06:19:20;12.85;;;2.88;;
9140;SDS011;46330;50.822;7.126;2022-11-03T06:21:52;9.98;;;2.83;;
9140;SDS011;46330;50.822;7.126;2022-11-03T06:24:24;11.45;;;2.75;;
9140;SDS011;46330;50.822;7.126;2022-11-03T06:26:56;9.23;;;2.20;;
9140;SDS011;46330;50.822;7.126;2022-11-03T06:29:28;12.55;;;2.50;;
9140;SDS011;46330;50.822;7.126;2022-11-03T06:31:57;12.13;;;2.80;;
9140;SDS011;46330;50.822;7.126;2022-11-03T06:34:29;13.88;;;2.72;;
9140;SDS011;46330;50.822;7.126;2022-11-03T06:37:01;10.57;;;2.30;;
9140;SDS011;46330;50.822;7.126;2022-11-03T06:39:41;12.85;;;3.08;;
9140;SDS011;46330;50.822;7.126;2022-11-03T06:42:10;9.65;;;2.65;;
9140;SDS011;46330;50.822;7.126;2022-11-03T06:44:41;10.90;;;2.15;;
9140;SDS011;46330;50.822;7.126;2022-11-03T06:47:13;11.25;;;2.55;;
9140;SDS011;46330;50.822;7.126;2022-11-03T06:49:48;7.10;;;2.30;;
9140;SDS011;46330;50.822;7.126;2022-11-03T06:52:20;9.43;;;2.65;;
9140;SDS011;46330;50.822;7.126;2022-11-03T06:54:53;9.90;;;2.50;;
9140;SDS011;46330;50.822;7.126;2022-11-03T06:57:25;10.63;;;2.85;;
9140;SDS011;46330;50.822;7.126;2022-11-03T06:59:55;9.63;;;2.40;;
9140;SDS011;46330;50.822;7.126;2022-11-03T07:02:52;9.45;;;2.50;;
9140;SDS011;46330;50.822;7.126;2022-11-03T07:05:23;9.88;;;2.55;;
9140;SDS011;46330;50.822;7.126;2022-11-03T07:07:54;12.02;;;2.95;;
9140;SDS011;46330;50.822;7.126;2022-11-03T07:10:24;10.73;;;2.42;;
9140;SDS011;46330;50.822;7.126;2022-11-03T07:12:54;14.80;;;2.58;;
9140;SDS011;46330;50.822;7.126;2022-11-03T07:15:25;13.35;;;2.90;;
9140;SDS011;46330;50.822;7.126;2022-11-03T07:17:55;8.98;;;2.47;;
9140;SDS011;46330;50.822;7.126;2022-11-03T07:20:24;8.88;;;2.88;;
9140;SDS011;46330;50.822;7.126;2022-11-03T07:22:51;10.05;;;2.42;;
9140;SDS011;46330;50.822;7.126;2022-11-03T07:25:22;8.70;;;2.35;;
9140;SDS011;46330;50.822;7.126;2022-11-03T07:27:50;9.77;;;2.72;;
9140;SDS011;46330;50.822;7.126;2022-11-03T07:30:28;9.13;;;2.50;;
9140;SDS011;46330;50.822;7.126;2022-11-03T07:33:00;10.57;;;2.45;;
9140;SDS011;46330;50.822;7.126;2022-11-03T07:35:35;12.10;;;2.90;;
9140;SDS011;46330;50.822;7.126;2022-11-03T07:38:27;9.52;;;2.83;;
9140;SDS011;46330;50.822;7.126;2022-11-03T07:40:56;10.10;;;3.30;;
9140;SDS011;46330;50.822;7.126;2022-11-03T07:43:27;11.40;;;5.97;;
9140;SDS011;46330;50.822;7.126;2022-11-03T07:45:59;10.38;;;5.30;;
9140;SDS011;46330;50.822;7.126;2022-11-03T07:48:32;15.00;;;12.65;;
9140;SDS011;46330;50.822;7.126;2022-11-03T07:51:05;10.43;;;8.13;;
9140;SDS011;46330;50.822;7.126;2022-11-03T07:53:43;12.45;;;8.50;;
9140;SDS011;46330;50.822;7.126;2022-11-03T07:56:14;10.30;;;5.65;;
9140;SDS011;46330;50.822;7.126;2022-11-03T07:58:46;11.55;;;4.47;;
9140;SDS011;46330;50.822;7.126;2022-11-03T08:01:23;8.45;;;4.43;;
9140;SDS011;46330;50.822;7.126;2022-11-03T08:03:53;10.55;;;4.15;;
9140;SDS011;46330;50.822;7.126;2022-11-03T08:06:24;7.63;;;2.28;;
9140;SDS011;46330;50.822;7.126;2022-11-03T08:08:52;7.35;;;2.33;;
9140;SDS011;46330;50.822;7.126;2022-11-03T08:11:20;8.10;;;2.67;;
9140;SDS011;46330;50.822;7.126;2022-11-03T08:13:54;10.48;;;2.10;;
9140;SDS011;46330;50.822;7.126;2022-11-03T08:16:24;6.63;;;2.00;;
9140;SDS011;46330;50.822;7.126;2022-11-03T08:18:51;6.38;;;1.95;;
9140;SDS011;46330;50.822;7.126;2022-11-03T08:21:19;10.23;;;2.78;;
9140;SDS011;46330;50.822;7.126;2022-11-03T08:23:47;11.63;;;2.53;;
9140;SDS011;46330;50.822;7.126;2022-11-03T08:26:15;6.15;;;1.88;;
9140;SDS011;46330;50.822;7.126;2022-11-03T08:28:43;7.57;;;1.92;;
9140;SDS011;46330;50.822;7.126;2022-11-03T08:31:10;8.23;;;1.88;;
9140;SDS011;46330;50.822;7.126;2022-11-03T08:33:40;9.93;;;2.70;;
9140;SDS011;46330;50.822;7.126;2022-11-03T08:36:08;9.38;;;2.17;;
9140;SDS011;46330;50.822;7.126;2022-11-03T08:38:36;8.43;;;2.00;;
9140;SDS011;46330;50.822;7.126;2022-11-03T08:41:04;7.20;;;2.08;;
9140;SDS011;46330;50.822;7.126;2022-11-03T08:43:32;6.20;;;1.65;;
9140;SDS011;46330;50.822;7.126;2022-11-03T08:45:59;12.05;;;2.70;;
9140;SDS011;46330;50.822;7.126;2022-11-03T08:48:42;6.22;;;2.08;;
9140;SDS011;46330;50.822;7.126;2022-11-03T08:51:10;10.02;;;2.33;;
9140;SDS011;46330;50.822;7.126;2022-11-03T08:53:39;9.98;;;1.80;;
9140;SDS011;46330;50.822;7.126;2022-11-03T08:56:08;7.03;;;1.90;;
9140;SDS011;46330;50.822;7.126;2022-11-03T08:58:40;6.38;;;1.67;;
9140;SDS011;46330;50.822;7.126;2022-11-03T09:01:08;5.43;;;1.85;;
9140;SDS011;46330;50.822;7.126;2022-11-03T09:03:36;8.93;;;2.30;;
9140;SDS011;46330;50.822;7.126;2022-11-03T09:06:05;6.60;;;1.95;;
9140;SDS011;46330;50.822;7.126;2022-11-03T09:08:34;8.90;;;2.20;;
9140;SDS011;46330;50.822;7.126;2022-11-03T09:11:22;9.20;;;2.10;;
9140;SDS011;46330;50.822;7.126;2022-11-03T09:13:50;8.27;;;2.10;;
9140;SDS011;46330;50.822;7.126;2022-11-03T09:16:17;7.57;;;2.03;;
9140;SDS011;46330;50.822;7.126;2022-11-03T09:18:45;5.82;;;1.80;;
9140;SDS011;46330;50.822;7.126;2022-11-03T09:21:14;9.00;;;1.98;;
9140;SDS011;46330;50.822;7.126;2022-11-03T09:23:42;7.53;;;1.95;;
9140;SDS011;46330;50.822;7.126;2022-11-03T09:26:10;8.27;;;2.17;;
9140;SDS011;46330;50.822;7.126;2022-11-03T09:28:38;10.95;;;2.08;;
9140;SDS011;46330;50.822;7.126;2022-11-03T09:31:05;8.88;;;1.80;;
9140;SDS011;46330;50.822;7.126;2022-11-03T09:33:33;6.00;;;2.08;;
9140;SDS011;46330;50.822;7.126;2022-11-03T09:36:01;7.43;;;1.80;;
9140;SDS011;46330;50.822;7.126;2022-11-03T09:38:30;5.00;;;1.75;;
9140;SDS011;46330;50.822;7.126;2022-11-03T09:40:58;7.28;;;1.65;;
9140;SDS011;46330;50.822;7.126;2022-11-03T09:43:26;5.22;;;1.70;;
9140;SDS011;46330;50.822;7.126;2022-11-03T09:45:54;7.13;;;1.58;;
9140;SDS011;46330;50.822;7.126;2022-11-03T09:48:21;6.45;;;1.95;;
9140;SDS011;46330;50.822;7.126;2022-11-03T09:50:50;5.80;;;1.80;;
9140;SDS011;46330;50.822;7.126;2022-11-03T09:53:20;10.82;;;2.25;;
9140;SDS011;46330;50.822;7.126;2022-11-03T09:55:49;5.22;;;1.50;;
9140;SDS011;46330;50.822;7.126;2022-11-03T09:58:17;5.63;;;1.67;;
9140;SDS011;46330;50.822;7.126;2022-11-03T10:00:45;7.97;;;1.92;;
9140;SDS011;46330;50.822;7.126;2022-11-03T10:03:13;7.07;;;1.70;;
9140;SDS011;46330;50.822;7.126;2022-11-03T10:05:43;5.75;;;1.60;;
9140;SDS011;46330;50.822;7.126;2022-11-03T10:08:15;9.27;;;1.90;;
9140;SDS011;46330;50.822;7.126;2022-11-03T10:10:49;6.13;;;1.80;;
9140;SDS011;46330;50.822;7.126;2022-11-03T10:13:21;6.22;;;1.55;;
9140;SDS011;46330;50.822;7.126;2022-11-03T10:15:53;10.07;;;2.10;;
9140;SDS011;46330;50.822;7.126;2022-11-03T10:18:21;8.63;;;1.58;;
9140;SDS011;46330;50.822;7.126;2022-11-03T10:20:49;6.93;;;2.10;;
9140;SDS011;46330;50.822;7.126;2022-11-03T10:23:16;6.57;;;1.55;;
9140;SDS011;46330;50.822;7.126;2022-11-03T10:25:44;8.85;;;1.80;;
9140;SDS011;46330;50.822;7.126;2022-11-03T10:28:18;6.97;;;1.60;;
9140;SDS011;46330;50.822;7.126;2022-11-03T10:30:48;6.00;;;2.13;;
9140;SDS011;46330;50.822;7.126;2022-11-03T10:33:40;5.05;;;1.45;;
9140;SDS011;46330;50.822;7.126;2022-11-03T10:36:21;5.75;;;1.80;;
9140;SDS011;46330;50.822;7.126;2022-11-03T10:38:50;7.85;;;1.98;;
9140;SDS011;46330;50.822;7.126;2022-11-03T10:41:19;6.68;;;1.70;;
9140;SDS011;46330;50.822;7.126;2022-11-03T10:44:00;10.20;;;2.20;;
9140;SDS011;46330;50.822;7.126;2022-11-03T10:46:29;6.05;;;2.05;;
9140;SDS011;46330;50.822;7.126;2022-11-03T10:49:18;5.57;;;1.58;;
9140;SDS011;46330;50.822;7.126;2022-11-03T10:51:48;5.57;;;1.67;;
9140;SDS011;46330;50.822;7.126;2022-11-03T10:54:17;6.18;;;1.60;;
9140;SDS011;46330;50.822;7.126;2022-11-03T10:56:46;7.15;;;1.98;;
9140;SDS011;46330;50.822;7.126;2022-11-03T10:59:17;7.75;;;1.98;;
9140;SDS011;46330;50.822;7.126;2022-11-03T11:01:47;6.95;;;1.80;;
9140;SDS011;46330;50.822;7.126;2022-11-03T11:04:16;3.42;;;1.60;;
9140;SDS011;46330;50.822;7.126;2022-11-03T11:06:46;4.65;;;1.85;;
9140;SDS011;46330;50.822;7.126;2022-11-03T11:09:15;7.53;;;1.90;;
9140;SDS011;46330;50.822;7.126;2022-11-03T11:11:57;4.50;;;1.77;;
9140;SDS011;46330;50.822;7.126;2022-11-03T11:14:35;11.38;;;1.90;;
9140;SDS011;46330;50.822;7.126;2022-11-03T11:17:05;5.68;;;1.90;;
9140;SDS011;46330;50.822;7.126;2022-11-03T11:20:16;8.98;;;1.88;;
9140;SDS011;46330;50.822;7.126;2022-11-03T11:22:54;5.10;;;1.38;;
9140;SDS011;46330;50.822;7.126;2022-11-03T11:25:22;5.45;;;1.95;;
9140;SDS011;46330;50.822;7.126;2022-11-03T11:28:28;6.55;;;2.00;;
9140;SDS011;46330;50.822;7.126;2022-11-03T11:30:57;4.28;;;1.35;;
9140;SDS011;46330;50.822;7.126;2022-11-03T11:33:26;7.75;;;2.00;;
9140;SDS011;46330;50.822;7.126;2022-11-03T11:38:58;6.68;;;2.05;;
9140;SDS011;46330;50.822;7.126;2022-11-03T11:47:26;5.47;;;1.90;;
9140;SDS011;46330;50.822;7.126;2022-11-03T11:50:02;8.20;;;2.13;;
9140;SDS011;46330;50.822;7.126;2022-11-03T11:52:43;5.90;;;1.80;;
9140;SDS011;46330;50.822;7.126;2022-11-03T11:55:16;10.05;;;2.13;;
9140;SDS011;46330;50.822;7.126;2022-11-03T11:57:45;8.88;;;1.88;;
9140;SDS011;46330;50.822;7.126;2022-11-03T12:00:17;7.53;;;1.95;;
9140;SDS011;46330;50.822;7.126;2022-11-03T12:02:49;6.25;;;2.00;;
9140;SDS011;46330;50.822;7.126;2022-11-03T12:05:19;7.45;;;2.22;;
9140;SDS011;46330;50.822;7.126;2022-11-03T12:07:48;10.23;;;2.35;;
9140;SDS011;46330;50.822;7.126;2022-11-03T12:10:17;7.50;;;2.00;;
9140;SDS011;46330;50.822;7.126;2022-11-03T12:12:48;6.30;;;2.30;;
9140;SDS011;46330;50.822;7.126;2022-11-03T12:18:28;9.35;;;2.30;;
9140;SDS011;46330;50.822;7.126;2022-11-03T12:21:04;7.85;;;2.35;;
9140;SDS011;46330;50.822;7.126;2022-11-03T12:23:34;8.05;;;2.55;;
9140;SDS011;46330;50.822;7.126;2022-11-03T12:26:13;7.88;;;2.95;;
9140;SDS011;46330;50.822;7.126;2022-11-03T12:28:42;5.10;;;1.88;;
9140;SDS011;46330;50.822;7.126;2022-11-03T12:31:10;5.10;;;1.95;;
9140;SDS011;46330;50.822;7.126;2022-11-03T12:33:40;5.97;;;2.35;;
9140;SDS011;46330;50.822;7.126;2022-11-03T12:36:07;5.50;;;2.00;;
9140;SDS011;46330;50.822;7.126;2022-11-03T12:38:35;7.43;;;2.40;;
9140;SDS011;46330;50.822;7.126;2022-11-03T12:41:03;8.25;;;2.40;;
9140;SDS011;46330;50.822;7.126;2022-11-03T12:43:45;9.18;;;2.40;;
9140;SDS011;46330;50.822;7.126;2022-11-03T12:46:14;6.05;;;2.15;;
9140;SDS011;46330;50.822;7.126;2022-11-03T12:48:44;5.75;;;2.38;;
9140;SDS011;46330;50.822;7.126;2022-11-03T12:51:12;5.68;;;1.80;;
9140;SDS011;46330;50.822;7.126;2022-11-03T12:53:41;6.05;;;2.30;;
9140;SDS011;46330;50.822;7.126;2022-11-03T12:56:09;6.78;;;2.20;;
9140;SDS011;46330;50.822;7.126;2022-11-03T12:58:38;8.02;;;2.00;;
9140;SDS011;46330;50.822;7.126;2022-11-03T13:01:06;7.40;;;2.20;;
9140;SDS011;46330;50.822;7.126;2022-11-03T13:03:35;6.63;;;1.95;;
9140;SDS011;46330;50.822;7.126;2022-11-03T13:06:04;8.27;;;2.20;;
9140;SDS011;46330;50.822;7.126;2022-11-03T13:08:35;5.55;;;2.00;;
9140;SDS011;46330;50.822;7.126;2022-11-03T13:11:03;7.63;;;2.42;;
9140;SDS011;46330;50.822;7.126;2022-11-03T13:13:51;6.38;;;2.47;;
9140;SDS011;46330;50.822;7.126;2022-11-03T13:16:19;6.00;;;2.50;;
9140;SDS011;46330;50.822;7.126;2022-11-03T13:18:47;5.53;;;2.30;;
9140;SDS011;46330;50.822;7.126;2022-11-03T13:21:17;7.00;;;2.10;;
9140;SDS011;46330;50.822;7.126;2022-11-03T13:23:44;6.40;;;2.45;;
9140;SDS011;46330;50.822;7.126;2022-11-03T13:26:12;4.00;;;1.92;;
9140;SDS011;46330;50.822;7.126;2022-11-03T13:28:40;7.03;;;2.30;;
9140;SDS011;46330;50.822;7.126;2022-11-03T13:31:08;9.52;;;3.75;;
9140;SDS011;46330;50.822;7.126;2022-11-03T13:33:35;10.13;;;2.60;;
9140;SDS011;46330;50.822;7.126;2022-11-03T13:36:03;3.65;;;2.00;;
9140;SDS011;46330;50.822;7.126;2022-11-03T13:38:33;8.15;;;2.65;;
9140;SDS011;46330;50.822;7.126;2022-11-03T13:41:01;10.68;;;2.85;;
9140;SDS011;46330;50.822;7.126;2022-11-03T13:43:34;7.03;;;2.58;;
9140;SDS011;46330;50.822;7.126;2022-11-03T13:46:02;9.93;;;2.70;;
9140;SDS011;46330;50.822;7.126;2022-11-03T13:48:30;8.43;;;3.08;;
9140;SDS011;46330;50.822;7.126;2022-11-03T13:51:18;7.55;;;3.47;;
9140;SDS011;46330;50.822;7.126;2022-11-03T13:53:48;8.18;;;4.22;;
9140;SDS011;46330;50.822;7.126;2022-11-03T13:56:36;6.63;;;4.03;;
9140;SDS011;46330;50.822;7.126;2022-11-03T13:59:24;7.28;;;3.83;;
9140;SDS011;46330;50.822;7.126;2022-11-03T14:01:54;6.32;;;2.60;;
9140;SDS011;46330;50.822;7.126;2022-11-03T14:04:41;6.03;;;2.30;;
9140;SDS011;46330;50.822;7.126;2022-11-03T14:07:10;8.60;;;2.60;;
9140;SDS011;46330;50.822;7.126;2022-11-03T14:09:39;5.43;;;2.63;;
9140;SDS011;46330;50.822;7.126;2022-11-03T14:12:07;6.22;;;3.40;;
9140;SDS011;46330;50.822;7.126;2022-11-03T14:14:52;10.00;;;3.22;;
9140;SDS011;46330;50.822;7.126;2022-11-03T14:17:20;5.88;;;2.88;;
9140;SDS011;46330;50.822;7.126;2022-11-03T14:19:48;6.57;;;2.70;;
9140;SDS011;46330;50.822;7.126;2022-11-03T14:22:19;6.32;;;2.40;;
9140;SDS011;46330;50.822;7.126;2022-11-03T14:24:48;7.90;;;3.50;;
9140;SDS011;46330;50.822;7.126;2022-11-03T14:27:17;9.68;;;4.05;;
9140;SDS011;46330;50.822;7.126;2022-11-03T14:29:45;7.80;;;2.85;;
9140;SDS011;46330;50.822;7.126;2022-11-03T14:32:15;6.47;;;2.42;;
9140;SDS011;46330;50.822;7.126;2022-11-03T14:34:43;7.65;;;2.67;;
9140;SDS011;46330;50.822;7.126;2022-11-03T14:37:12;5.93;;;2.90;;
9140;SDS011;46330;50.822;7.126;2022-11-03T14:39:41;5.72;;;2.40;;
9140;SDS011;46330;50.822;7.126;2022-11-03T14:42:11;6.55;;;2.40;;
9140;SDS011;46330;50.822;7.126;2022-11-03T14:44:41;10.43;;;2.33;;
9140;SDS011;46330;50.822;7.126;2022-11-03T14:47:12;7.75;;;2.33;;
9140;SDS011;46330;50.822;7.126;2022-11-03T14:49:42;5.85;;;2.50;;
9140;SDS011;46330;50.822;7.126;2022-11-03T14:52:11;10.63;;;2.95;;
9140;SDS011;46330;50.822;7.126;2022-11-03T14:54:39;9.60;;;2.60;;
9140;SDS011;46330;50.822;7.126;2022-11-03T14:57:07;7.22;;;3.47;;
9140;SDS011;46330;50.822;7.126;2022-11-03T14:59:37;12.40;;;6.80;;
9140;SDS011;46330;50.822;7.126;2022-11-03T15:02:05;8.48;;;3.90;;
9140;SDS011;46330;50.822;7.126;2022-11-03T15:04:33;16.83;;;4.45;;
9140;SDS011;46330;50.822;7.126;2022-11-03T15:07:01;14.57;;;5.35;;
9140;SDS011;46330;50.822;7.126;2022-11-03T15:09:28;14.13;;;5.30;;
9140;SDS011;46330;50.822;7.126;2022-11-03T15:11:56;10.98;;;3.92;;
9140;SDS011;46330;50.822;7.126;2022-11-03T15:14:24;9.65;;;3.85;;
9140;SDS011;46330;50.822;7.126;2022-11-03T15:16:53;8.52;;;3.28;;
9140;SDS011;46330;50.822;7.126;2022-11-03T15:19:21;8.75;;;3.05;;
9140;SDS011;46330;50.822;7.126;2022-11-03T15:21:48;6.95;;;3.42;;
9140;SDS011;46330;50.822;7.126;2022-11-03T15:24:16;9.70;;;4.45;;
9140;SDS011;46330;50.822;7.126;2022-11-03T15:27:04;8.48;;;3.67;;
9140;SDS011;46330;50.822;7.126;2022-11-03T15:29:32;12.05;;;4.30;;
9140;SDS011;46330;50.822;7.126;2022-11-03T15:32:01;17.23;;;8.80;;
9140;SDS011;46330;50.822;7.126;2022-11-03T15:34:28;21.48;;;12.82;;
9140;SDS011;46330;50.822;7.126;2022-11-03T15:36:56;16.00;;;10.23;;
9140;SDS011;46330;50.822;7.126;2022-11-03T15:39:24;18.52;;;12.25;;